createdAt,value
2017-02-16T00:36:42.270Z,0
2017-02-16T00:37:30.735Z,0
2017-02-16T00:38:19.376Z,0
2017-02-16T00:39:07.642Z,0
2017-02-16T00:39:56.130Z,0
2017-02-16T00:40:45.000Z,0
2017-02-16T00:41:33.709Z,0
2017-02-16T00:42:22.031Z,0
2017-02-16T00:43:10.851Z,0
2017-02-16T00:43:59.039Z,0
2017-02-16T00:44:47.584Z,0
2017-02-16T00:45:35.984Z,0
2017-02-16T00:46:15.962Z,0
2017-02-16T00:46:56.982Z,0
2017-02-16T00:47:37.417Z,0
2017-02-16T01:32:13.787Z,0
2017-02-16T01:33:02.615Z,0
2017-02-16T01:33:51.364Z,0
2017-02-16T01:34:39.670Z,0
2017-02-16T01:35:28.282Z,0
2017-02-16T01:36:17.201Z,0
2017-02-16T01:37:05.610Z,0
2017-02-16T01:37:54.668Z,0
2017-02-16T01:38:43.105Z,0
2017-02-16T01:39:32.535Z,0
2017-02-16T01:40:20.756Z,0
2017-02-16T01:41:09.280Z,0
2017-02-16T01:41:57.897Z,0
2017-02-16T01:42:46.368Z,0
2017-02-16T01:43:35.279Z,0
2017-02-16T01:44:24.253Z,0
2017-02-16T01:45:13.235Z,0
2017-02-16T01:46:01.971Z,0
2017-02-16T01:46:50.740Z,0
2017-02-16T01:47:38.995Z,0
2017-02-16T01:48:28.020Z,0
2017-02-16T01:49:16.440Z,0
2017-02-16T01:50:05.752Z,0
2017-02-16T01:50:53.752Z,0
2017-02-16T01:51:42.259Z,0
2017-02-16T01:52:31.698Z,0
2017-02-16T01:53:20.699Z,0
2017-02-16T01:54:09.481Z,0
2017-02-16T01:54:57.801Z,0
2017-02-16T01:55:46.468Z,0
2017-02-16T01:56:35.259Z,0
2017-02-16T01:57:24.097Z,0
2017-02-16T01:58:12.370Z,0
2017-02-16T01:59:00.998Z,0
2017-02-16T01:59:49.546Z,0
2017-02-16T02:00:38.420Z,0
2017-02-16T02:01:26.934Z,0
2017-02-16T02:02:15.775Z,0
2017-02-16T02:03:04.215Z,0
2017-02-16T02:03:53.089Z,0
2017-02-16T02:04:40.214Z,0
2017-02-16T02:05:29.124Z,0
2017-02-16T02:06:17.348Z,0
2017-02-16T02:07:06.428Z,0
2017-02-16T02:07:54.700Z,0
2017-02-16T02:08:43.710Z,0
2017-02-16T02:09:31.864Z,0
2017-02-16T02:10:20.752Z,0
2017-02-16T02:11:09.675Z,0
2017-02-16T02:11:58.007Z,0
2017-02-16T02:12:46.408Z,0
2017-02-16T02:13:35.217Z,0
2017-02-16T02:14:23.952Z,0
2017-02-16T02:15:12.754Z,0
2017-02-16T02:16:00.813Z,0
2017-02-16T02:16:49.769Z,0
2017-02-16T02:17:38.179Z,0
2017-02-16T02:18:26.651Z,0
2017-02-16T02:19:15.293Z,0
2017-02-16T02:19:54.916Z,0
2017-02-16T02:20:35.269Z,0
2017-02-16T02:21:15.719Z,0
2017-02-16T02:21:56.140Z,0
2017-02-16T02:22:36.505Z,0
2017-02-16T02:23:18.866Z,0
2017-02-16T02:23:59.236Z,0
2017-02-16T02:24:39.675Z,0
2017-02-16T02:25:20.070Z,0
2017-02-16T02:26:00.473Z,0
2017-02-16T02:26:40.871Z,0
2017-02-16T02:27:21.836Z,0
2017-02-16T02:28:03.144Z,0
2017-02-16T02:28:43.519Z,0
2017-02-16T02:29:23.925Z,0
2017-02-16T02:30:04.309Z,0
2017-02-16T02:30:44.691Z,0
2017-02-16T02:31:26.130Z,0
2017-02-16T02:32:09.110Z,0
2017-02-16T02:32:51.250Z,0
2017-02-16T02:33:32.667Z,0
2017-02-16T02:34:13.900Z,0
2017-02-16T02:34:56.184Z,0
2017-02-16T02:35:36.555Z,0
2017-02-16T02:36:16.972Z,0
2017-02-16T02:36:57.364Z,0
2017-02-16T02:37:38.279Z,0
2017-02-16T02:38:18.662Z,0
2017-02-16T02:38:59.116Z,0
2017-02-16T02:39:40.329Z,0
2017-02-16T02:40:21.262Z,0
2017-02-16T02:42:42.820Z,0
2017-02-16T02:43:31.524Z,0
2017-02-16T02:44:19.970Z,0
2017-02-16T02:45:08.653Z,0
2017-02-16T02:45:56.878Z,0
2017-02-16T07:46:55.676Z,145
2017-02-16T07:47:44.256Z,145
2017-02-16T07:48:32.939Z,145
2017-02-16T07:49:21.267Z,145
2017-02-16T07:53:17.647Z,145
2017-02-16T07:55:53.712Z,145
2017-02-16T07:56:41.929Z,145
2017-02-16T07:57:31.207Z,145
2017-02-16T07:58:19.593Z,145
2017-02-16T07:59:07.940Z,145
2017-02-16T07:59:56.247Z,145
2017-02-16T08:00:45.431Z,145
2017-02-16T08:01:33.720Z,140
2017-02-16T08:02:26.064Z,145
2017-02-16T08:03:14.697Z,140
2017-02-16T08:04:07.342Z,145
2017-02-16T08:06:55.309Z,150
2017-02-16T08:07:43.951Z,150
2017-02-16T08:08:32.212Z,150
2017-02-16T08:09:22.269Z,150
2017-02-16T08:10:10.496Z,150
2017-02-16T08:10:59.279Z,155
2017-02-16T08:11:47.587Z,155
2017-02-16T08:12:36.251Z,155
2017-02-16T08:13:24.964Z,160
2017-02-16T08:14:14.732Z,160
2017-02-16T08:15:02.398Z,160
2017-02-16T08:15:50.059Z,160
2017-02-16T08:16:38.800Z,165
2017-02-16T08:17:27.465Z,165
2017-02-16T08:18:16.217Z,165
2017-02-16T08:19:04.562Z,165
2017-02-16T08:19:53.052Z,170
2017-02-16T08:20:41.936Z,175
2017-02-16T08:21:30.527Z,180
2017-02-16T08:22:18.758Z,185
2017-02-16T08:23:07.673Z,185
2017-02-16T08:23:55.807Z,190
2017-02-16T08:24:44.306Z,195
2017-02-16T08:25:33.019Z,200
2017-02-16T08:26:21.543Z,205
2017-02-16T08:27:10.325Z,210
2017-02-16T08:27:59.029Z,210
2017-02-16T08:28:47.183Z,215
2017-02-16T08:29:36.350Z,220
2017-02-16T08:30:24.539Z,230
2017-02-16T08:31:13.260Z,235
2017-02-16T08:32:01.553Z,245
2017-02-16T08:32:50.680Z,255
2017-02-16T08:33:39.218Z,265
2017-02-16T08:34:27.431Z,270
2017-02-16T08:35:16.344Z,275
2017-02-16T08:39:08.684Z,290
2017-02-16T08:41:29.798Z,305
2017-02-16T08:42:18.065Z,305
2017-02-16T08:43:06.608Z,310
2017-02-16T08:43:55.574Z,310
2017-02-16T08:48:07.452Z,305
2017-02-16T08:48:55.865Z,310
2017-02-16T08:49:44.584Z,315
2017-02-16T08:50:32.988Z,315
2017-02-16T08:51:21.604Z,315
2017-02-16T08:52:10.450Z,305
2017-02-16T08:52:58.963Z,295
2017-02-16T08:53:47.395Z,290
2017-02-16T08:54:36.305Z,290
2017-02-16T08:55:24.271Z,290
2017-02-16T09:00:49.811Z,340
2017-02-16T09:37:20.060Z,330
2017-02-16T09:49:03.013Z,510
2017-02-16T09:49:51.587Z,520
2017-02-16T10:48:33.534Z,850
2017-02-16T10:49:17.679Z,860
2017-02-16T10:53:29.130Z,855
2017-02-16T10:54:17.533Z,850
2017-02-16T10:55:06.651Z,845
2017-02-16T10:55:54.708Z,850
2017-02-16T10:56:43.411Z,850
2017-02-16T10:57:31.918Z,850
2017-02-16T10:58:20.439Z,850
2017-02-16T10:59:10.174Z,850
2017-02-16T10:59:58.166Z,810
2017-02-16T11:00:46.867Z,835
2017-02-16T11:01:35.467Z,850
2017-02-16T11:02:24.270Z,845
2017-02-16T11:03:12.584Z,855
2017-02-16T11:03:58.087Z,820
2017-02-16T11:04:46.880Z,820
2017-02-16T11:05:36.025Z,645
2017-02-16T11:06:24.382Z,555
2017-02-16T11:07:12.984Z,845
2017-02-16T11:08:01.389Z,845
2017-02-16T11:08:49.920Z,840
2017-02-16T11:09:38.536Z,840
2017-02-16T11:10:27.361Z,840
2017-02-16T11:11:15.891Z,835
2017-02-16T11:12:04.524Z,835
2017-02-16T11:12:53.038Z,830
2017-02-16T11:13:38.256Z,830
2017-02-16T11:14:19.557Z,835
2017-02-16T11:15:02.333Z,830
2017-02-16T11:15:44.204Z,830
2017-02-16T11:24:22.032Z,810
2017-02-16T11:25:10.407Z,810
2017-02-16T11:25:59.589Z,810
2017-02-16T11:26:47.635Z,810
2017-02-16T11:27:36.511Z,805
2017-02-16T11:28:24.410Z,810
2017-02-16T11:29:13.099Z,810
2017-02-16T11:30:01.413Z,810
2017-02-16T11:30:49.840Z,810
2017-02-16T11:31:37.881Z,810
2017-02-16T11:32:21.037Z,810
2017-02-16T11:34:59.578Z,805
2017-02-16T11:35:48.054Z,805
2017-02-16T11:38:05.567Z,805
2017-02-16T11:38:53.105Z,805
2017-02-16T11:39:41.343Z,805
2017-02-16T11:40:30.078Z,795
2017-02-16T11:41:15.820Z,790
2017-02-16T11:41:57.252Z,790
2017-02-16T11:42:37.661Z,800
2017-02-16T11:43:20.974Z,790
2017-02-16T11:44:02.272Z,790
2017-02-16T11:44:47.203Z,785
2017-02-16T11:45:30.221Z,785
2017-02-16T11:46:13.207Z,785
2017-02-16T11:46:54.577Z,785
2017-02-16T11:47:35.757Z,780
2017-02-16T11:48:17.854Z,780
2017-02-16T11:48:59.086Z,780
2017-02-16T11:49:39.568Z,775
2017-02-16T13:06:36.670Z,650
2017-02-16T13:07:25.458Z,645
2017-02-16T13:08:13.617Z,645
2017-02-16T13:09:02.295Z,645
2017-02-16T13:09:50.842Z,640
2017-02-16T13:10:39.601Z,635
2017-02-16T13:11:28.269Z,635
2017-02-16T13:12:17.048Z,630
2017-02-16T13:13:05.790Z,630
2017-02-16T13:13:54.328Z,625
2017-02-16T13:14:42.897Z,625
2017-02-16T13:15:32.024Z,620
2017-02-16T13:16:20.300Z,615
2017-02-16T13:17:09.348Z,615
2017-02-16T13:17:57.733Z,610
2017-02-16T13:18:46.278Z,605
2017-02-16T13:19:35.159Z,605
2017-02-16T13:20:23.460Z,605
2017-02-16T13:21:12.172Z,600
2017-02-16T13:22:00.844Z,595
2017-02-16T13:22:49.222Z,590
2017-02-16T13:23:38.147Z,590
2017-02-16T13:24:26.818Z,585
2017-02-16T13:25:16.170Z,580
2017-02-16T13:26:04.260Z,585
2017-02-16T13:26:52.862Z,575
2017-02-16T13:27:42.021Z,570
2017-02-16T13:28:30.301Z,565
2017-02-16T13:29:19.259Z,565
2017-02-16T13:30:01.463Z,560
2017-02-16T13:30:44.512Z,555
2017-02-16T13:31:25.590Z,555
2017-02-16T13:32:06.033Z,550
2017-02-16T13:32:49.002Z,545
2017-02-16T13:33:30.558Z,535
2017-02-16T13:34:09.938Z,535
2017-02-16T13:34:51.299Z,525
2017-02-16T13:35:31.450Z,520
2017-02-16T13:36:11.906Z,520
2017-02-16T13:36:53.443Z,515
2017-02-16T13:37:33.819Z,510
2017-02-16T13:38:14.273Z,500
2017-02-16T13:38:54.708Z,495
2017-02-16T13:39:35.432Z,495
2017-02-16T13:40:17.515Z,490
2017-02-16T13:40:58.027Z,485
2017-02-16T13:41:38.477Z,475
2017-02-16T13:42:18.987Z,470
2017-02-16T13:42:59.451Z,465
2017-02-16T13:43:40.029Z,460
2017-02-16T13:44:21.934Z,450
2017-02-16T13:45:02.581Z,445
2017-02-16T13:45:43.060Z,440
2017-02-16T13:46:25.026Z,435
2017-02-16T13:47:08.989Z,430
2017-02-16T13:47:49.521Z,420
2017-02-16T13:48:29.991Z,410
2017-02-16T13:49:11.331Z,405
2017-02-16T13:49:51.818Z,400
2017-02-16T13:50:32.230Z,390
2017-02-16T13:51:12.733Z,385
2017-02-16T13:51:53.412Z,380
2017-02-16T13:52:33.916Z,380
2017-02-16T13:53:14.846Z,375
2017-02-16T13:53:56.289Z,370
2017-02-16T13:54:36.886Z,365
2017-02-16T13:58:32.322Z,345
2017-02-16T13:59:20.946Z,345
2017-02-16T14:00:09.589Z,345
2017-02-16T14:00:58.234Z,340
2017-02-16T14:01:46.703Z,340
2017-02-16T14:02:35.148Z,340
2017-02-16T14:03:23.911Z,340
2017-02-16T14:04:12.929Z,345
2017-02-16T14:05:02.038Z,345
2017-02-16T14:05:50.436Z,340
2017-02-16T14:06:39.452Z,335
2017-02-16T14:07:28.213Z,330
2017-02-16T14:08:16.618Z,325
2017-02-16T14:09:05.717Z,320
2017-02-16T14:09:54.082Z,310
2017-02-16T14:10:42.753Z,315
2017-02-16T14:11:31.164Z,310
2017-02-16T14:12:19.724Z,305
2017-02-16T14:13:08.711Z,305
2017-02-16T14:13:57.428Z,305
2017-02-16T14:14:45.745Z,300
2017-02-16T14:15:34.681Z,300
2017-02-16T14:16:23.228Z,295
2017-02-16T14:17:11.664Z,290
2017-02-16T14:18:00.314Z,290
2017-02-16T14:18:48.917Z,285
2017-02-16T14:19:37.631Z,285
2017-02-16T14:20:26.687Z,280
2017-02-16T14:21:14.843Z,280
2017-02-16T14:22:04.197Z,275
2017-02-16T14:22:52.290Z,270
2017-02-16T14:23:40.835Z,270
2017-02-16T14:24:29.740Z,275
2017-02-16T14:25:18.175Z,275
2017-02-16T14:26:06.965Z,275
2017-02-16T14:26:46.978Z,275
2017-02-16T14:27:27.436Z,275
2017-02-16T14:28:08.583Z,280
2017-02-16T14:28:50.584Z,270
2017-02-16T14:29:30.997Z,270
2017-02-16T14:30:11.410Z,265
2017-02-16T14:30:52.765Z,265
2017-02-16T14:31:33.147Z,260
2017-02-16T14:32:13.624Z,260
2017-02-16T14:32:54.217Z,260
2017-02-16T14:33:35.135Z,255
2017-02-16T14:34:15.733Z,250
2017-02-16T14:34:56.575Z,250
2017-02-16T14:35:36.919Z,250
2017-02-16T14:36:17.399Z,250
2017-02-16T14:36:57.805Z,245
2017-02-16T14:37:38.257Z,245
2017-02-16T20:14:27.125Z,0
2017-02-16T20:15:20.853Z,0
2017-02-16T20:16:15.728Z,0
2017-02-16T20:30:15.493Z,0
2017-02-16T20:30:56.932Z,0
2017-02-16T20:31:37.386Z,0
2017-02-16T20:32:18.003Z,0
2017-02-16T20:32:58.475Z,0
2017-02-16T20:33:38.932Z,0
2017-02-16T20:34:19.375Z,0
2017-02-16T20:34:59.846Z,0
2017-02-16T20:35:40.299Z,0
2017-02-16T20:36:20.711Z,0
2017-02-16T20:37:01.184Z,0
2017-02-16T20:37:41.642Z,0
2017-02-16T20:38:22.082Z,0
2017-02-16T20:39:02.578Z,0
2017-02-16T20:39:42.995Z,0
2017-02-16T20:40:23.502Z,0
2017-02-16T20:41:03.963Z,0
2017-02-16T20:41:44.384Z,0
2017-02-16T20:42:24.866Z,0
2017-02-16T20:43:05.337Z,0
2017-02-16T20:43:45.809Z,0
2017-02-16T20:44:26.265Z,0
2017-02-16T20:45:06.716Z,0
2017-02-16T20:45:47.184Z,0
2017-02-16T20:46:27.588Z,0
2017-02-16T20:47:08.057Z,0
2017-02-16T20:47:48.465Z,0
2017-02-16T20:48:28.976Z,0
2017-02-16T20:49:09.448Z,0
2017-02-16T20:49:49.888Z,0
2017-02-16T20:50:30.316Z,0
2017-02-16T20:51:10.801Z,0
2017-02-16T20:51:51.261Z,0
2017-02-16T20:52:31.750Z,0
2017-02-16T20:53:12.206Z,0
2017-02-16T20:53:52.679Z,0
2017-02-16T20:54:33.111Z,0
2017-02-16T20:55:13.552Z,0
2017-02-16T20:55:53.995Z,0
2017-02-16T20:56:34.416Z,0
2017-02-16T20:57:14.844Z,0
2017-02-16T20:57:55.333Z,0
2017-02-16T20:58:35.811Z,0
2017-02-16T20:59:16.288Z,0
2017-02-16T20:59:56.718Z,0
2017-02-16T21:00:37.158Z,0
2017-02-16T21:01:17.624Z,0
2017-02-16T21:01:58.079Z,0
2017-02-16T21:02:38.516Z,0
2017-02-16T21:03:18.944Z,0
2017-02-16T21:03:59.423Z,0
2017-02-16T21:04:39.923Z,0
2017-02-16T21:05:21.328Z,0
2017-02-16T21:06:01.747Z,0
2017-02-16T21:06:42.209Z,0
2017-02-16T21:07:22.665Z,0
2017-02-16T21:08:03.102Z,0
2017-02-16T21:08:43.572Z,0
2017-02-16T21:09:24.027Z,0
2017-02-16T21:10:04.589Z,0
2017-02-16T21:10:45.176Z,0
2017-02-16T21:11:25.599Z,0
2017-02-16T21:12:06.080Z,0
2017-02-16T21:12:46.725Z,0
2017-02-16T21:13:27.184Z,0
2017-02-16T21:14:07.664Z,0
2017-02-16T21:14:48.094Z,0
2017-02-16T21:15:29.196Z,0
2017-02-16T21:16:09.648Z,0
2017-02-16T21:16:50.102Z,0
2017-02-16T21:17:30.584Z,0
2017-02-16T21:18:11.085Z,0
2017-02-16T21:18:51.539Z,0
2017-02-16T21:19:32.018Z,0
2017-02-16T21:20:13.326Z,0
2017-02-16T21:20:53.815Z,0
2017-02-16T21:21:34.256Z,0
2017-02-16T21:22:15.916Z,0
2017-02-16T21:22:56.519Z,0
2017-02-16T21:23:37.005Z,0
2017-02-16T21:24:17.474Z,0
2017-02-16T21:24:57.902Z,0
2017-02-16T21:25:38.354Z,0
2017-02-16T21:26:18.900Z,0
2017-02-16T21:26:59.729Z,0
2017-02-16T21:27:40.334Z,0
2017-02-16T21:28:20.782Z,0
2017-02-16T21:29:01.324Z,0
2017-02-16T21:29:41.765Z,0
2017-02-16T21:30:22.192Z,0
2017-02-16T21:31:02.793Z,0
2017-02-16T21:31:43.300Z,0
2017-02-16T21:32:23.802Z,0
2017-02-16T21:33:04.234Z,0
2017-02-16T21:33:44.776Z,0
2017-02-16T21:34:25.940Z,0
2017-02-16T21:35:06.926Z,0
2017-02-16T21:35:47.411Z,0
2017-02-16T21:36:27.864Z,0
2017-02-16T21:37:08.600Z,0
2017-02-16T21:37:48.884Z,0
2017-02-16T21:38:29.423Z,0
2017-02-16T21:39:09.958Z,0
2017-02-16T21:39:50.377Z,0
2017-02-16T21:40:30.855Z,0
2017-02-16T21:41:11.285Z,0
2017-02-16T21:41:51.761Z,0
2017-02-16T21:42:32.252Z,0
2017-02-16T21:43:12.697Z,0
2017-02-16T21:43:53.236Z,0
2017-02-16T21:44:33.729Z,0
2017-02-16T21:45:14.146Z,0
2017-02-16T21:45:54.625Z,0
2017-02-16T21:46:35.101Z,0
2017-02-16T21:47:16.480Z,0
2017-02-16T21:47:56.933Z,0
2017-02-16T21:48:37.356Z,0
2017-02-16T21:49:17.826Z,0
2017-02-16T21:49:58.277Z,0
2017-02-16T21:50:38.749Z,0
2017-02-16T21:51:19.173Z,0
2017-02-16T21:51:59.615Z,0
2017-02-16T21:52:40.071Z,0
2017-02-16T21:53:20.570Z,0
2017-02-16T21:54:01.019Z,0
2017-02-16T21:54:41.501Z,0
2017-02-16T21:55:22.015Z,0
2017-02-16T21:56:02.504Z,0
2017-02-16T21:56:42.973Z,0
2017-02-16T21:57:23.490Z,0
2017-02-16T21:58:03.913Z,0
2017-02-16T21:58:44.365Z,0
2017-02-16T21:59:24.820Z,0
2017-02-16T22:00:05.260Z,0
2017-02-16T22:00:45.661Z,0
2017-02-16T22:01:26.117Z,0
2017-02-16T22:02:06.547Z,0
2017-02-16T22:02:47.009Z,0
2017-02-16T22:03:27.472Z,0
2017-02-16T22:04:07.986Z,0
2017-02-16T22:04:48.384Z,0
2017-02-16T22:05:28.880Z,0
2017-02-16T22:06:09.345Z,0
2017-02-16T22:06:49.811Z,0
2017-02-16T22:07:30.202Z,0
2017-02-16T22:08:10.656Z,0
2017-02-16T22:08:51.098Z,0
2017-02-16T22:09:31.561Z,0
2017-02-16T22:10:11.982Z,0
2017-02-16T22:10:52.454Z,0
2017-02-16T22:11:32.888Z,0
2017-02-16T22:12:13.342Z,0
2017-02-16T22:12:53.804Z,0
2017-02-16T22:13:34.257Z,0
2017-02-16T22:14:14.708Z,0
2017-02-16T22:14:55.178Z,0
2017-02-16T22:15:35.607Z,0
2017-02-16T22:16:16.260Z,0
2017-02-16T22:16:56.838Z,0
2017-02-16T22:17:37.341Z,0
2017-02-16T22:18:17.701Z,0
2017-02-16T22:18:58.147Z,0
2017-02-16T22:19:38.624Z,0
2017-02-16T22:20:19.121Z,0
2017-02-16T22:20:59.587Z,0
2017-02-16T22:21:40.001Z,0
2017-02-16T22:22:20.450Z,0
2017-02-16T22:23:00.932Z,0
2017-02-16T22:23:42.778Z,0
2017-02-16T22:24:23.957Z,0
2017-02-16T22:25:04.373Z,0
2017-02-16T22:25:44.886Z,0
2017-02-16T22:26:25.314Z,0
2017-02-16T22:27:05.749Z,0
2017-02-16T22:27:46.230Z,0
2017-02-16T22:28:26.717Z,0
2017-02-16T22:29:07.167Z,0
2017-02-16T22:29:47.647Z,0
2017-02-16T22:30:28.138Z,0
2017-02-16T22:31:08.579Z,0
2017-02-16T22:31:49.030Z,0
2017-02-16T22:32:29.525Z,0
2017-02-16T22:33:09.946Z,0
2017-02-16T22:33:50.398Z,0
2017-02-16T22:34:30.925Z,0
2017-02-16T22:35:11.363Z,0
2017-02-16T22:35:51.798Z,0
2017-02-16T22:36:32.224Z,0
2017-02-16T22:37:12.652Z,0
2017-02-16T22:37:53.152Z,0
2017-02-16T22:38:33.578Z,0
2017-02-16T22:39:14.051Z,0
2017-02-16T22:39:54.634Z,0
2017-02-16T22:40:35.112Z,0
2017-02-16T22:41:15.577Z,0
2017-02-16T22:41:56.094Z,0
2017-02-16T22:42:36.567Z,0
2017-02-16T22:43:17.005Z,0
2017-02-16T22:43:57.417Z,0
2017-02-16T22:44:37.897Z,0
2017-02-16T22:45:18.337Z,0
2017-02-16T22:45:58.769Z,0
2017-02-16T22:46:39.279Z,0
2017-02-16T22:47:19.679Z,0
2017-02-16T22:48:00.440Z,0
2017-02-16T22:48:40.957Z,0
2017-02-16T22:49:21.692Z,0
2017-02-16T22:50:02.151Z,0
2017-02-16T22:50:42.633Z,0
2017-02-16T22:51:23.083Z,0
2017-02-16T22:52:03.551Z,0
2017-02-16T22:52:44.013Z,0
2017-02-16T22:53:24.461Z,0
2017-02-16T22:54:04.990Z,0
2017-02-16T22:54:45.380Z,0
2017-02-16T22:55:25.864Z,0
2017-02-16T22:56:06.326Z,0
2017-02-16T22:56:46.853Z,0
2017-02-16T22:57:27.323Z,0
2017-02-16T22:58:07.886Z,0
2017-02-16T22:58:49.031Z,0
2017-02-16T22:59:29.517Z,0
2017-02-16T23:00:09.972Z,0
2017-02-16T23:00:50.515Z,0
2017-02-16T23:01:31.195Z,0
2017-02-16T23:02:11.685Z,0
2017-02-16T23:02:52.204Z,0
2017-02-16T23:03:32.646Z,0
2017-02-16T23:04:13.549Z,0
2017-02-16T23:04:54.035Z,0
2017-02-16T23:05:34.503Z,0
2017-02-16T23:06:14.962Z,0
2017-02-16T23:06:55.396Z,0
2017-02-16T23:07:35.954Z,0
2017-02-16T23:08:16.409Z,0
2017-02-16T23:08:56.870Z,0
2017-02-16T23:09:37.280Z,0
2017-02-16T23:10:17.712Z,0
2017-02-16T23:10:58.233Z,0
2017-02-16T23:11:38.718Z,0
2017-02-16T23:12:19.159Z,0
2017-02-16T23:12:59.653Z,0
2017-02-16T23:13:40.046Z,0
2017-02-16T23:14:20.505Z,0
2017-02-16T23:15:00.986Z,0
2017-02-16T23:15:41.469Z,0
2017-02-16T23:16:21.897Z,0
2017-02-16T23:17:02.391Z,0
2017-02-16T23:17:42.923Z,0
2017-02-16T23:18:23.290Z,0
2017-02-16T23:19:03.783Z,0
2017-02-16T23:19:44.250Z,0
2017-02-16T23:20:24.716Z,0
2017-02-16T23:21:05.207Z,0
2017-02-16T23:21:45.690Z,0
2017-02-16T23:22:26.124Z,0
2017-02-16T23:23:06.631Z,0
2017-02-16T23:23:47.050Z,0
2017-02-16T23:24:27.559Z,0
2017-02-16T23:25:08.035Z,0
2017-02-16T23:25:48.472Z,0
2017-02-16T23:26:28.977Z,0
2017-02-16T23:27:09.500Z,0
2017-02-16T23:27:49.924Z,0
2017-02-16T23:28:30.425Z,0
2017-02-16T23:29:10.902Z,0
2017-02-16T23:29:51.452Z,0
2017-02-16T23:30:31.951Z,0
2017-02-16T23:31:12.367Z,0
2017-02-16T23:31:52.818Z,0
2017-02-16T23:32:33.231Z,0
2017-02-16T23:33:13.683Z,0
2017-02-16T23:33:54.250Z,0
2017-02-16T23:34:34.689Z,0
2017-02-16T23:35:15.192Z,0
2017-02-16T23:35:55.656Z,0
2017-02-16T23:36:36.135Z,0
2017-02-16T23:37:16.567Z,0
2017-02-16T23:37:57.190Z,0
2017-02-16T23:38:38.390Z,0
2017-02-16T23:39:19.082Z,0
2017-02-16T23:39:59.564Z,0
2017-02-16T23:40:40.485Z,0
2017-02-16T23:41:21.194Z,0
2017-02-16T23:42:01.515Z,0
2017-02-16T23:42:42.246Z,0
2017-02-16T23:43:22.729Z,0
2017-02-16T23:44:03.161Z,0
2017-02-16T23:44:43.580Z,0
2017-02-16T23:45:24.095Z,0
2017-02-16T23:46:04.665Z,0
2017-02-16T23:46:45.153Z,0
2017-02-16T23:47:25.638Z,0
2017-02-16T23:48:06.102Z,0
2017-02-16T23:48:46.582Z,0
2017-02-16T23:49:27.048Z,0
2017-02-16T23:50:07.487Z,0
2017-02-16T23:50:47.937Z,0
2017-02-16T23:51:28.362Z,0
2017-02-16T23:52:08.874Z,0
2017-02-16T23:52:49.319Z,0
2017-02-16T23:53:29.767Z,0
2017-02-16T23:54:10.198Z,0
2017-02-16T23:54:50.716Z,0
2017-02-16T23:55:31.131Z,0
2017-02-16T23:56:11.605Z,0
2017-02-16T23:56:52.027Z,0
2017-02-16T23:57:32.463Z,0
2017-02-16T23:58:12.991Z,0
2017-02-16T23:58:53.448Z,0
2017-02-16T23:59:33.896Z,0
